createdAt,value
2023-04-26T00:01:20.570Z,21.10
2023-04-26T00:03:50.505Z,21.10
2023-04-26T00:06:23.543Z,21.00
2023-04-26T00:08:59.493Z,21.00
2023-04-26T00:11:31.368Z,20.90
2023-04-26T00:13:58.550Z,20.90
2023-04-26T00:16:28.339Z,20.90
2023-04-26T00:18:58.091Z,20.90
2023-04-26T00:21:31.468Z,20.80
2023-04-26T00:24:14.961Z,20.80
2023-04-26T00:26:44.674Z,20.80
2023-04-26T00:29:11.468Z,20.80
2023-04-26T00:31:43.576Z,20.80
2023-04-26T00:34:11.374Z,20.70
2023-04-26T00:36:44.284Z,20.70
2023-04-26T00:39:20.896Z,20.70
2023-04-26T00:41:47.943Z,20.70
2023-04-26T00:44:14.637Z,20.70
2023-04-26T00:46:41.545Z,20.70
2023-04-26T00:49:08.325Z,20.70
2023-04-26T00:51:35.310Z,20.70
2023-04-26T00:54:01.999Z,20.70
2023-04-26T00:56:32.167Z,20.60
2023-04-26T00:58:58.907Z,20.70
2023-04-26T01:01:26.083Z,20.60
2023-04-26T01:03:52.943Z,20.60
2023-04-26T01:06:19.742Z,20.60
2023-04-26T01:08:46.828Z,20.60
2023-04-26T01:11:13.514Z,20.60
2023-04-26T01:13:41.121Z,20.60
2023-04-26T01:16:08.284Z,20.60
2023-04-26T01:18:35.208Z,20.60
2023-04-26T01:21:03.470Z,20.60
2023-04-26T01:23:30.448Z,20.60
2023-04-26T01:25:57.197Z,20.60
2023-04-26T01:28:24.064Z,20.60
2023-04-26T01:30:50.890Z,20.60
2023-04-26T01:33:17.650Z,20.60
2023-04-26T01:35:44.401Z,20.60
2023-04-26T01:38:11.146Z,20.60
2023-04-26T01:40:37.904Z,20.50
2023-04-26T01:43:04.676Z,20.50
2023-04-26T01:45:31.341Z,20.50
2023-04-26T01:47:58.433Z,20.50
2023-04-26T01:50:25.264Z,20.50
2023-04-26T01:52:51.950Z,20.50
2023-04-26T01:55:18.748Z,20.50
2023-04-26T01:57:45.467Z,20.50
2023-04-26T02:00:12.896Z,20.50
2023-04-26T02:02:39.760Z,20.50
2023-04-26T02:05:06.698Z,20.50
2023-04-26T02:07:33.422Z,20.50
2023-04-26T02:10:00.200Z,20.50
2023-04-26T02:12:26.882Z,20.50
2023-04-26T02:14:53.641Z,20.50
2023-04-26T02:17:21.454Z,20.50
2023-04-26T02:19:48.206Z,20.50
2023-04-26T02:22:14.964Z,20.50
2023-04-26T02:24:41.965Z,20.50
2023-04-26T02:27:08.704Z,20.50
2023-04-26T02:29:43.911Z,20.50
2023-04-26T02:32:11.921Z,20.50
2023-04-26T02:34:38.968Z,20.50
2023-04-26T02:37:05.724Z,20.50
2023-04-26T02:39:32.458Z,20.50
2023-04-26T02:41:59.617Z,20.40
2023-04-26T02:44:29.141Z,20.50
2023-04-26T02:46:55.986Z,20.40
2023-04-26T02:49:22.770Z,20.40
2023-04-26T02:51:49.463Z,20.40
2023-04-26T02:54:16.544Z,20.40
2023-04-26T02:56:43.219Z,20.50
2023-04-26T02:59:09.939Z,20.40
2023-04-26T03:01:36.750Z,20.40
2023-04-26T03:04:04.449Z,20.50
2023-04-26T03:06:33.020Z,20.40
2023-04-26T03:09:01.058Z,20.40
2023-04-26T03:11:29.417Z,20.40
2023-04-26T03:13:58.017Z,20.40
2023-04-26T03:16:30.838Z,20.40
2023-04-26T03:19:06.326Z,20.40
2023-04-26T03:21:33.065Z,20.40
2023-04-26T03:24:01.760Z,20.40
2023-04-26T03:26:29.351Z,20.40
2023-04-26T03:28:57.228Z,20.40
2023-04-26T03:31:25.298Z,20.40
2023-04-26T03:33:53.398Z,20.40
2023-04-26T03:36:21.067Z,20.40
2023-04-26T03:38:48.648Z,20.40
2023-04-26T03:41:17.471Z,20.40
2023-04-26T03:43:45.827Z,20.40
2023-04-26T03:46:41.610Z,20.40
2023-04-26T03:49:09.596Z,20.40
2023-04-26T03:51:41.271Z,20.40
2023-04-26T03:54:08.840Z,20.40
2023-04-26T03:56:36.991Z,20.40
2023-04-26T03:59:04.468Z,20.40
2023-04-26T04:01:32.616Z,20.40
2023-04-26T04:04:01.972Z,20.40
2023-04-26T04:06:33.333Z,20.40
2023-04-26T04:09:03.666Z,20.40
2023-04-26T04:11:33.060Z,20.40
2023-04-26T04:14:00.250Z,20.40
2023-04-26T04:16:27.085Z,20.40
2023-04-26T04:18:54.026Z,20.40
2023-04-26T04:21:21.023Z,20.40
2023-04-26T04:23:47.928Z,20.40
2023-04-26T04:26:14.629Z,20.40
2023-04-26T04:28:45.685Z,20.40
2023-04-26T04:31:13.129Z,20.40
2023-04-26T04:33:39.920Z,20.40
2023-04-26T04:36:06.904Z,20.40
2023-04-26T04:38:33.744Z,20.40
2023-04-26T04:41:00.552Z,20.40
2023-04-26T04:43:27.972Z,20.40
2023-04-26T04:45:55.654Z,20.40
2023-04-26T04:48:23.689Z,20.30
2023-04-26T04:50:50.867Z,20.40
2023-04-26T04:53:17.597Z,20.40
2023-04-26T04:55:44.531Z,20.50
2023-04-26T04:58:11.306Z,20.60
2023-04-26T05:00:38.860Z,20.70
2023-04-26T05:03:05.798Z,20.80
2023-04-26T05:05:32.653Z,21.00
2023-04-26T05:07:59.540Z,21.10
2023-04-26T05:10:26.438Z,21.10
2023-04-26T05:12:54.028Z,21.00
2023-04-26T05:15:22.487Z,21.00
2023-04-26T05:17:49.381Z,20.90
2023-04-26T05:20:16.254Z,20.90
2023-04-26T05:22:43.053Z,20.80
2023-04-26T05:25:10.678Z,20.80
2023-04-26T05:27:40.451Z,20.70
2023-04-26T05:30:08.177Z,20.70
2023-04-26T05:32:34.958Z,20.70
2023-04-26T05:35:01.797Z,20.60
2023-04-26T05:37:28.497Z,20.60
2023-04-26T05:39:55.245Z,20.60
2023-04-26T05:42:22.010Z,20.60
2023-04-26T05:44:48.712Z,20.50
2023-04-26T05:47:15.430Z,20.50
2023-04-26T05:49:42.104Z,20.50
2023-04-26T05:52:08.847Z,20.50
2023-04-26T05:54:36.182Z,20.50
2023-04-26T05:57:03.625Z,20.50
2023-04-26T05:59:33.033Z,20.50
2023-04-26T06:01:59.819Z,20.50
2023-04-26T06:04:26.742Z,20.50
2023-04-26T06:06:53.677Z,20.50
2023-04-26T06:09:20.416Z,20.40
2023-04-26T06:11:47.132Z,20.40
2023-04-26T06:14:28.821Z,20.40
2023-04-26T06:16:57.472Z,20.50
2023-04-26T06:19:24.297Z,20.40
2023-04-26T06:21:52.300Z,20.50
2023-04-26T06:24:19.382Z,20.40
2023-04-26T06:26:46.269Z,20.40
2023-04-26T06:29:13.023Z,20.40
2023-04-26T06:31:39.781Z,20.40
2023-04-26T06:34:07.449Z,20.40
2023-04-26T06:36:35.177Z,20.40
2023-04-26T06:39:01.904Z,20.40
2023-04-26T06:41:28.654Z,20.40
2023-04-26T06:43:55.823Z,20.40
2023-04-26T06:46:22.640Z,20.40
2023-04-26T06:48:49.387Z,20.40
2023-04-26T06:51:16.382Z,20.30
2023-04-26T06:53:43.190Z,20.30
2023-04-26T06:56:10.296Z,20.30
2023-04-26T06:58:37.083Z,20.40
2023-04-26T07:01:03.914Z,20.40
2023-04-26T07:03:31.082Z,20.40
2023-04-26T07:05:57.968Z,20.30
2023-04-26T07:08:24.713Z,20.40
2023-04-26T07:10:51.913Z,20.40
2023-04-26T07:13:18.632Z,20.40
2023-04-26T07:15:45.523Z,20.30
2023-04-26T07:18:12.416Z,20.40
2023-04-26T07:20:39.192Z,20.40
2023-04-26T07:23:05.908Z,20.40
2023-04-26T07:25:32.623Z,20.30
2023-04-26T07:27:59.321Z,20.30
2023-04-26T07:30:26.158Z,20.30
2023-04-26T07:32:53.455Z,20.30
2023-04-26T07:35:20.278Z,20.40
2023-04-26T07:37:47.178Z,20.40
2023-04-26T07:40:14.123Z,20.30
2023-04-26T07:42:40.911Z,20.40
2023-04-26T07:45:08.586Z,20.40
2023-04-26T07:47:35.530Z,20.40
2023-04-26T07:50:02.278Z,20.40
2023-04-26T07:52:29.113Z,20.40
2023-04-26T07:54:55.948Z,20.30
2023-04-26T07:57:22.687Z,20.30
2023-04-26T07:59:49.381Z,20.30
2023-04-26T08:02:17.388Z,20.40
2023-04-26T08:04:48.798Z,20.30
2023-04-26T08:07:16.316Z,20.40
2023-04-26T08:09:43.097Z,20.40
2023-04-26T08:12:09.911Z,20.30
2023-04-26T08:14:36.950Z,20.30
2023-04-26T08:17:03.689Z,20.40
2023-04-26T08:19:32.774Z,20.40
2023-04-26T08:21:59.458Z,20.40
2023-04-26T08:24:26.173Z,20.40
2023-04-26T08:26:52.982Z,20.30
2023-04-26T08:29:20.593Z,20.40
2023-04-26T08:31:47.273Z,20.40
2023-04-26T08:34:13.986Z,20.30
2023-04-26T08:36:41.833Z,20.40
2023-04-26T08:39:08.668Z,20.30
2023-04-26T08:41:45.774Z,20.30
2023-04-26T08:44:12.496Z,20.30
2023-04-26T08:46:52.548Z,20.30
2023-04-26T08:49:25.523Z,20.30
2023-04-26T08:51:52.219Z,20.30
2023-04-26T08:54:19.750Z,20.30
2023-04-26T08:56:46.816Z,20.30
2023-04-26T08:59:15.027Z,20.30
2023-04-26T09:01:42.104Z,20.30
2023-04-26T09:04:09.046Z,20.30
2023-04-26T09:06:36.030Z,20.40
2023-04-26T09:09:04.865Z,20.30
2023-04-26T09:11:31.710Z,20.40
2023-04-26T09:13:58.504Z,20.30
2023-04-26T09:16:35.051Z,20.40
2023-04-26T09:19:02.018Z,20.40
2023-04-26T09:21:30.065Z,20.30
2023-04-26T09:23:57.301Z,20.30
2023-04-26T09:26:24.023Z,20.30
2023-04-26T09:28:51.130Z,20.40
2023-04-26T09:31:47.018Z,20.30
2023-04-26T09:34:15.513Z,20.30
2023-04-26T09:36:49.301Z,20.30
2023-04-26T09:39:16.200Z,20.40
2023-04-26T09:41:44.184Z,20.30
2023-04-26T09:44:23.563Z,20.30
2023-04-26T09:47:00.107Z,20.30
2023-04-26T09:49:27.763Z,20.30
2023-04-26T09:52:06.785Z,20.30
2023-04-26T09:54:39.603Z,20.30
2023-04-26T09:57:06.419Z,20.40
2023-04-26T09:59:40.127Z,20.50
2023-04-26T10:02:08.148Z,20.60
2023-04-26T10:04:35.030Z,20.70
2023-04-26T10:07:02.369Z,20.90
2023-04-26T10:09:29.124Z,21.00
2023-04-26T10:11:57.046Z,21.10
2023-04-26T10:14:23.750Z,21.00
2023-04-26T10:16:50.540Z,21.00
2023-04-26T10:19:17.309Z,20.90
2023-04-26T10:21:44.131Z,20.80
2023-04-26T10:24:10.838Z,20.80
2023-04-26T10:26:54.579Z,20.80
2023-04-26T10:29:21.388Z,20.80
2023-04-26T10:32:10.668Z,20.70
2023-04-26T10:34:38.583Z,20.70
2023-04-26T10:37:17.703Z,20.70
2023-04-26T10:39:45.624Z,20.70
2023-04-26T10:42:24.157Z,20.60
2023-04-26T10:44:52.503Z,20.60
2023-04-26T10:47:22.470Z,20.60
2023-04-26T10:49:49.404Z,20.60
2023-04-26T10:52:23.315Z,20.60
2023-04-26T10:54:54.027Z,20.50
2023-04-26T10:57:21.748Z,20.60
2023-04-26T11:00:08.966Z,20.60
2023-04-26T11:02:55.921Z,20.60
2023-04-26T11:05:44.687Z,20.50
2023-04-26T11:08:14.779Z,20.50
2023-04-26T11:10:42.051Z,20.50
2023-04-26T11:13:09.223Z,20.50
2023-04-26T11:15:36.333Z,20.50
2023-04-26T11:18:04.529Z,20.50
2023-04-26T11:20:32.299Z,20.50
2023-04-26T11:22:59.396Z,20.50
2023-04-26T11:25:29.412Z,20.50
2023-04-26T11:28:02.963Z,20.50
2023-04-26T11:30:30.493Z,20.40
2023-04-26T11:33:01.530Z,20.50
2023-04-26T11:35:38.496Z,20.50
2023-04-26T11:38:06.764Z,20.50
2023-04-26T11:40:36.856Z,20.50
2023-04-26T11:43:07.200Z,20.50
2023-04-26T11:45:36.448Z,20.40
2023-04-26T11:48:04.705Z,20.50
2023-04-26T11:50:34.826Z,20.50
2023-04-26T11:53:02.027Z,20.70
2023-04-26T11:55:33.511Z,20.80
2023-04-26T11:58:00.459Z,20.90
2023-04-26T12:00:27.252Z,21.00
2023-04-26T12:02:54.328Z,21.00
2023-04-26T12:05:30.659Z,21.00
2023-04-26T12:08:03.273Z,20.90
2023-04-26T12:10:35.644Z,20.90
2023-04-26T12:13:03.065Z,20.80
2023-04-26T12:15:38.458Z,20.80
2023-04-26T12:18:31.179Z,20.80
2023-04-26T12:20:59.534Z,20.70
2023-04-26T12:23:39.448Z,20.70
2023-04-26T12:26:12.117Z,20.70
2023-04-26T12:28:39.143Z,20.70
2023-04-26T12:31:22.310Z,20.70
2023-04-26T12:33:50.903Z,20.60
2023-04-26T12:36:23.927Z,20.60
2023-04-26T12:38:52.887Z,20.60
2023-04-26T12:41:19.967Z,20.60
2023-04-26T12:43:48.563Z,20.60
2023-04-26T12:46:27.342Z,20.60
2023-04-26T12:49:12.519Z,20.60
2023-04-26T12:51:46.857Z,20.60
2023-04-26T12:54:15.811Z,20.60
2023-04-26T12:57:00.708Z,20.60
2023-04-26T12:59:27.454Z,20.60
2023-04-26T13:01:54.243Z,20.60
2023-04-26T13:04:31.397Z,20.60
2023-04-26T13:06:58.276Z,20.60
2023-04-26T13:09:28.218Z,20.50
2023-04-26T13:11:55.645Z,20.50
2023-04-26T13:14:31.474Z,20.50
2023-04-26T13:16:58.406Z,20.50
2023-04-26T13:19:29.653Z,20.50
2023-04-26T13:21:56.588Z,20.50
2023-04-26T13:24:29.538Z,20.50
2023-04-26T13:26:57.174Z,20.60
2023-04-26T13:29:29.903Z,20.60
2023-04-26T13:32:03.189Z,20.80
2023-04-26T13:34:30.789Z,20.90
2023-04-26T13:37:04.346Z,21.00
2023-04-26T13:39:32.442Z,21.20
2023-04-26T13:41:59.770Z,21.20
2023-04-26T13:44:27.212Z,21.10
2023-04-26T13:46:54.993Z,21.00
2023-04-26T13:49:23.157Z,21.00
2023-04-26T13:51:52.717Z,20.90
2023-04-26T13:54:22.414Z,20.90
2023-04-26T13:56:49.315Z,20.90
2023-04-26T13:59:21.719Z,20.80
2023-04-26T14:01:58.888Z,20.80
2023-04-26T14:04:26.826Z,20.80
2023-04-26T14:06:55.935Z,20.70
2023-04-26T14:09:22.720Z,20.70
2023-04-26T14:12:06.488Z,20.70
2023-04-26T14:14:51.267Z,20.70
2023-04-26T14:17:20.801Z,20.70
2023-04-26T14:19:48.392Z,20.70
2023-04-26T14:22:17.902Z,20.60
2023-04-26T14:24:45.764Z,20.70
2023-04-26T14:27:18.981Z,20.60
2023-04-26T14:29:46.001Z,20.60
2023-04-26T14:32:12.879Z,20.60
2023-04-26T14:34:40.089Z,20.60
2023-04-26T14:37:12.958Z,20.60
2023-04-26T14:39:46.343Z,20.60
2023-04-26T14:42:16.639Z,20.60
2023-04-26T14:44:44.316Z,20.60
2023-04-26T14:47:33.530Z,20.60
2023-04-26T14:50:14.017Z,20.60
2023-04-26T14:52:57.650Z,20.60
2023-04-26T14:55:27.313Z,20.60
2023-04-26T14:57:54.740Z,20.60
2023-04-26T15:00:22.735Z,20.60
2023-04-26T15:02:56.188Z,20.60
2023-04-26T15:05:24.545Z,20.50
2023-04-26T15:07:52.483Z,20.60
2023-04-26T15:10:19.274Z,20.60
2023-04-26T15:12:52.519Z,20.50
2023-04-26T15:15:19.435Z,20.50
2023-04-26T15:17:49.240Z,20.60
2023-04-26T15:20:16.109Z,20.50
2023-04-26T15:22:43.967Z,20.60
2023-04-26T15:25:11.712Z,20.80
2023-04-26T15:27:38.736Z,20.90
2023-04-26T15:30:08.012Z,21.00
2023-04-26T15:32:35.717Z,21.10
2023-04-26T15:35:06.256Z,21.20
2023-04-26T15:37:33.101Z,21.20
2023-04-26T15:40:18.211Z,21.10
2023-04-26T15:43:02.855Z,21.10
2023-04-26T15:45:29.594Z,21.00
2023-04-26T15:47:57.788Z,21.00
2023-04-26T15:50:25.375Z,20.90
2023-04-26T15:52:52.251Z,20.90
2023-04-26T15:55:19.041Z,20.90
2023-04-26T15:57:45.742Z,20.80
2023-04-26T16:00:14.352Z,20.80
2023-04-26T16:02:44.711Z,20.80
2023-04-26T16:08:04.158Z,20.80
2023-04-26T16:10:38.402Z,20.80
2023-04-26T16:13:17.646Z,20.70
2023-04-26T16:15:46.114Z,20.70
2023-04-26T16:18:13.104Z,20.70
2023-04-26T16:20:40.142Z,20.70
2023-04-26T16:23:07.597Z,20.70
2023-04-26T16:25:34.361Z,20.70
2023-04-26T16:28:01.291Z,20.70
2023-04-26T16:30:28.122Z,20.70
2023-04-26T16:32:54.886Z,20.70
2023-04-26T16:35:21.660Z,20.70
2023-04-26T16:37:48.457Z,20.70
2023-04-26T16:40:15.256Z,20.70
2023-04-26T16:42:43.441Z,20.70
2023-04-26T16:45:11.170Z,20.70
2023-04-26T16:47:37.957Z,20.60
2023-04-26T16:50:05.012Z,20.70
2023-04-26T16:52:31.962Z,20.70
2023-04-26T16:54:58.676Z,20.70
2023-04-26T16:57:25.535Z,20.70
2023-04-26T16:59:52.321Z,20.70
2023-04-26T17:02:19.458Z,20.70
2023-04-26T17:04:46.600Z,20.70
2023-04-26T17:07:13.534Z,20.70
2023-04-26T17:09:40.483Z,20.70
2023-04-26T17:12:10.476Z,20.70
2023-04-26T17:14:43.423Z,20.80
2023-04-26T17:17:11.309Z,20.70
2023-04-26T17:19:38.061Z,20.80
2023-04-26T17:22:06.344Z,20.80
2023-04-26T17:24:33.148Z,20.90
2023-04-26T17:27:03.131Z,21.00
2023-04-26T17:29:32.877Z,21.20
2023-04-26T17:31:59.684Z,21.40
2023-04-26T17:34:26.820Z,21.50
2023-04-26T17:36:53.681Z,21.50
2023-04-26T17:39:20.649Z,21.40
2023-04-26T17:41:47.426Z,21.30
2023-04-26T17:44:14.672Z,21.30
2023-04-26T17:46:41.577Z,21.20
2023-04-26T17:49:08.412Z,21.20
2023-04-26T17:51:35.237Z,21.10
2023-04-26T17:54:01.939Z,21.10
2023-04-26T17:56:29.100Z,21.10
2023-04-26T17:58:55.926Z,21.00
2023-04-26T18:01:25.830Z,21.00
2023-04-26T18:03:52.847Z,21.00
2023-04-26T18:06:20.080Z,20.90
2023-04-26T18:08:47.242Z,20.90
2023-04-26T18:11:14.043Z,20.90
2023-04-26T18:13:41.187Z,20.90
2023-04-26T18:16:08.021Z,20.90
2023-04-26T18:18:34.766Z,20.80
2023-04-26T18:21:01.676Z,20.80
2023-04-26T18:23:28.439Z,20.80
2023-04-26T18:25:55.392Z,20.80
2023-04-26T18:28:22.182Z,20.80
2023-04-26T18:30:48.961Z,20.80
2023-04-26T18:33:15.833Z,20.80
2023-04-26T18:35:42.660Z,20.80
2023-04-26T18:38:10.377Z,20.70
2023-04-26T18:40:37.360Z,20.70
2023-04-26T18:43:04.479Z,20.70
2023-04-26T18:45:31.604Z,20.70
2023-04-26T18:47:58.568Z,20.70
2023-04-26T18:50:26.031Z,20.70
2023-04-26T18:52:52.784Z,20.70
2023-04-26T18:55:19.760Z,20.70
2023-04-26T18:57:46.836Z,20.80
2023-04-26T19:00:13.742Z,20.70
2023-04-26T19:02:41.102Z,20.70
2023-04-26T19:05:09.723Z,20.70
2023-04-26T19:07:36.716Z,20.70
2023-04-26T19:10:04.362Z,20.70
2023-04-26T19:12:31.125Z,20.70
2023-04-26T19:14:58.031Z,20.70
2023-04-26T19:17:25.041Z,20.70
2023-04-26T19:19:52.323Z,20.70
2023-04-26T19:22:19.065Z,20.70
2023-04-26T19:24:49.969Z,20.70
2023-04-26T19:27:17.404Z,20.60
2023-04-26T19:29:44.111Z,20.60
2023-04-26T19:32:10.975Z,20.60
2023-04-26T19:34:38.941Z,20.60
2023-04-26T19:37:05.814Z,20.60
2023-04-26T19:39:32.555Z,20.60
2023-04-26T19:42:01.384Z,20.60
2023-04-26T19:44:28.081Z,20.60
2023-04-26T19:46:55.621Z,20.60
2023-04-26T19:49:22.421Z,20.60
2023-04-26T19:51:49.163Z,20.60
2023-04-26T19:54:17.117Z,20.60
2023-04-26T19:56:43.831Z,20.60
2023-04-26T19:59:10.652Z,20.60
2023-04-26T20:01:37.474Z,20.60
2023-04-26T20:04:04.329Z,20.60
2023-04-26T20:06:31.698Z,20.60
2023-04-26T20:08:58.393Z,20.50
2023-04-26T20:11:25.186Z,20.50
2023-04-26T20:13:52.501Z,20.60
2023-04-26T20:16:19.302Z,20.60
2023-04-26T20:18:46.020Z,20.50
2023-04-26T20:21:12.737Z,20.50
2023-04-26T20:23:39.496Z,20.50
2023-04-26T20:26:06.315Z,20.50
2023-04-26T20:28:33.020Z,20.50
2023-04-26T20:30:59.802Z,20.50
2023-04-26T20:33:26.475Z,20.50
2023-04-26T20:35:53.550Z,20.50
2023-04-26T20:38:20.918Z,20.50
2023-04-26T20:40:48.770Z,20.50
2023-04-26T20:43:16.110Z,20.50
2023-04-26T20:45:43.024Z,20.50
2023-04-26T20:48:09.752Z,20.50
2023-04-26T20:50:36.739Z,20.50
2023-04-26T20:53:04.234Z,20.50
2023-04-26T20:55:30.884Z,20.50
2023-04-26T20:57:57.475Z,20.50
2023-04-26T21:00:24.242Z,20.50
2023-04-26T21:02:51.010Z,20.50
2023-04-26T21:05:17.694Z,20.50
2023-04-26T21:07:44.288Z,20.50
2023-04-26T21:10:11.080Z,20.60
2023-04-26T21:12:38.203Z,20.70
2023-04-26T21:15:05.114Z,20.70
2023-04-26T21:17:31.732Z,20.90
2023-04-26T21:19:58.438Z,21.00
2023-04-26T21:22:25.089Z,21.10
2023-04-26T21:24:52.243Z,21.20
2023-04-26T21:27:18.896Z,21.20
2023-04-26T21:29:45.648Z,21.10
2023-04-26T21:32:12.299Z,21.10
2023-04-26T21:34:38.978Z,21.00
2023-04-26T21:37:06.315Z,20.90
2023-04-26T21:39:32.978Z,20.90
2023-04-26T21:41:59.603Z,20.90
2023-04-26T21:44:26.203Z,20.80
2023-04-26T21:46:52.837Z,20.80
2023-04-26T21:49:19.635Z,20.80
2023-04-26T21:51:46.253Z,20.70
2023-04-26T21:54:13.661Z,20.70
2023-04-26T21:56:41.431Z,20.70
2023-04-26T21:59:10.355Z,20.70
2023-04-26T22:01:37.355Z,20.70
2023-04-26T22:04:04.260Z,20.70
2023-04-26T22:06:31.071Z,20.60
2023-04-26T22:08:57.683Z,20.60
2023-04-26T22:11:24.329Z,20.60
2023-04-26T22:13:51.474Z,20.60
2023-04-26T22:16:18.225Z,20.60
2023-04-26T22:18:44.850Z,20.60
2023-04-26T22:21:11.469Z,20.60
2023-04-26T22:23:38.078Z,20.60
2023-04-26T22:26:04.792Z,20.50
2023-04-26T22:28:31.462Z,20.50
2023-04-26T22:30:58.105Z,20.50
2023-04-26T22:33:24.763Z,20.50
2023-04-26T22:35:51.489Z,20.50
2023-04-26T22:38:18.246Z,20.50
2023-04-26T22:40:44.884Z,20.50
2023-04-26T22:43:11.547Z,20.50
2023-04-26T22:45:38.248Z,20.50
2023-04-26T22:48:04.976Z,20.50
2023-04-26T22:50:31.707Z,20.50
2023-04-26T22:52:58.320Z,20.50
2023-04-26T22:55:25.117Z,20.50
2023-04-26T23:00:32.379Z,20.40
2023-04-26T23:02:59.151Z,20.50
2023-04-26T23:05:25.886Z,20.40
2023-04-26T23:07:52.716Z,20.40
2023-04-26T23:10:19.486Z,20.50
2023-04-26T23:12:46.280Z,20.40
2023-04-26T23:15:13.389Z,20.50
2023-04-26T23:17:41.879Z,20.40
2023-04-26T23:20:12.272Z,20.40
2023-04-26T23:22:40.051Z,20.40
2023-04-26T23:25:07.317Z,20.40
2023-04-26T23:27:34.062Z,20.40
2023-04-26T23:30:01.047Z,20.40
2023-04-26T23:32:27.835Z,20.40
2023-04-26T23:34:54.556Z,20.50
2023-04-26T23:37:21.450Z,20.50
2023-04-26T23:39:48.142Z,20.40
2023-04-26T23:42:14.892Z,20.40
2023-04-26T23:44:42.003Z,20.40
2023-04-26T23:47:08.757Z,20.40
2023-04-26T23:49:35.418Z,20.40
2023-04-26T23:52:02.112Z,20.40
2023-04-26T23:54:28.792Z,20.40
2023-04-26T23:56:55.835Z,20.40
2023-04-26T23:59:23.223Z,20.40
